sensor_id;sensor_type;location;lat;lon;timestamp;P1;durP1;ratioP1;P2;durP2;ratioP2
74267;SDS011;62638;51.362;12.472;2022-11-15T00:01:15;16.50;;;7.10;;
74267;SDS011;62638;51.362;12.472;2022-11-15T00:03:42;16.38;;;5.88;;
74267;SDS011;62638;51.362;12.472;2022-11-15T00:06:08;17.23;;;7.50;;
74267;SDS011;62638;51.362;12.472;2022-11-15T00:08:33;14.15;;;6.30;;
74267;SDS011;62638;51.362;12.472;2022-11-15T00:10:59;14.73;;;6.90;;
74267;SDS011;62638;51.362;12.472;2022-11-15T00:13:26;17.35;;;6.72;;
74267;SDS011;62638;51.362;12.472;2022-11-15T00:15:52;14.20;;;7.07;;
74267;SDS011;62638;51.362;12.472;2022-11-15T00:18:21;17.88;;;6.72;;
74267;SDS011;62638;51.362;12.472;2022-11-15T00:20:46;12.88;;;5.90;;
74267;SDS011;62638;51.362;12.472;2022-11-15T00:23:11;12.67;;;4.83;;
74267;SDS011;62638;51.362;12.472;2022-11-15T00:25:37;14.75;;;6.80;;
74267;SDS011;62638;51.362;12.472;2022-11-15T00:28:02;12.82;;;6.03;;
74267;SDS011;62638;51.362;12.472;2022-11-15T00:30:28;12.68;;;5.97;;
74267;SDS011;62638;51.362;12.472;2022-11-15T00:32:53;14.13;;;5.75;;
74267;SDS011;62638;51.362;12.472;2022-11-15T00:35:19;15.77;;;5.18;;
74267;SDS011;62638;51.362;12.472;2022-11-15T00:37:45;11.57;;;5.40;;
74267;SDS011;62638;51.362;12.472;2022-11-15T00:40:12;18.00;;;6.05;;
74267;SDS011;62638;51.362;12.472;2022-11-15T00:42:38;17.08;;;6.28;;
74267;SDS011;62638;51.362;12.472;2022-11-15T00:45:03;8.30;;;4.10;;
74267;SDS011;62638;51.362;12.472;2022-11-15T00:47:29;12.73;;;5.50;;
74267;SDS011;62638;51.362;12.472;2022-11-15T00:49:55;22.57;;;5.70;;
74267;SDS011;62638;51.362;12.472;2022-11-15T00:52:20;10.65;;;4.38;;
74267;SDS011;62638;51.362;12.472;2022-11-15T00:54:45;10.43;;;4.30;;
74267;SDS011;62638;51.362;12.472;2022-11-15T00:57:10;10.20;;;4.10;;
74267;SDS011;62638;51.362;12.472;2022-11-15T00:59:36;8.33;;;3.93;;
74267;SDS011;62638;51.362;12.472;2022-11-15T01:02:01;9.85;;;4.68;;
74267;SDS011;62638;51.362;12.472;2022-11-15T01:04:26;10.90;;;4.77;;
74267;SDS011;62638;51.362;12.472;2022-11-15T01:06:52;8.10;;;4.45;;
74267;SDS011;62638;51.362;12.472;2022-11-15T01:09:18;10.15;;;4.50;;
74267;SDS011;62638;51.362;12.472;2022-11-15T01:11:43;9.07;;;3.13;;
74267;SDS011;62638;51.362;12.472;2022-11-15T01:14:08;8.90;;;4.43;;
74267;SDS011;62638;51.362;12.472;2022-11-15T01:16:34;8.90;;;4.32;;
74267;SDS011;62638;51.362;12.472;2022-11-15T01:18:59;5.07;;;2.65;;
74267;SDS011;62638;51.362;12.472;2022-11-15T01:21:24;8.07;;;3.35;;
74267;SDS011;62638;51.362;12.472;2022-11-15T01:23:53;11.63;;;3.60;;
74267;SDS011;62638;51.362;12.472;2022-11-15T01:26:22;8.45;;;4.32;;
74267;SDS011;62638;51.362;12.472;2022-11-15T01:28:48;10.30;;;3.95;;
74267;SDS011;62638;51.362;12.472;2022-11-15T01:31:15;8.25;;;3.30;;
74267;SDS011;62638;51.362;12.472;2022-11-15T01:33:42;5.97;;;3.40;;
74267;SDS011;62638;51.362;12.472;2022-11-15T01:36:10;8.98;;;3.55;;
74267;SDS011;62638;51.362;12.472;2022-11-15T01:38:37;7.28;;;3.33;;
74267;SDS011;62638;51.362;12.472;2022-11-15T01:41:03;7.53;;;3.13;;
74267;SDS011;62638;51.362;12.472;2022-11-15T01:43:30;7.80;;;3.30;;
74267;SDS011;62638;51.362;12.472;2022-11-15T01:45:58;5.65;;;2.88;;
74267;SDS011;62638;51.362;12.472;2022-11-15T01:48:29;7.45;;;3.70;;
74267;SDS011;62638;51.362;12.472;2022-11-15T01:51:00;8.05;;;3.20;;
74267;SDS011;62638;51.362;12.472;2022-11-15T01:53:31;4.85;;;3.00;;
74267;SDS011;62638;51.362;12.472;2022-11-15T01:55:59;10.23;;;3.60;;
74267;SDS011;62638;51.362;12.472;2022-11-15T01:58:29;11.30;;;3.63;;
74267;SDS011;62638;51.362;12.472;2022-11-15T02:00:54;8.05;;;3.75;;
74267;SDS011;62638;51.362;12.472;2022-11-15T02:03:20;5.60;;;2.92;;
74267;SDS011;62638;51.362;12.472;2022-11-15T02:05:50;6.00;;;3.05;;
74267;SDS011;62638;51.362;12.472;2022-11-15T02:08:16;6.15;;;3.05;;
74267;SDS011;62638;51.362;12.472;2022-11-15T02:10:45;7.65;;;3.33;;
74267;SDS011;62638;51.362;12.472;2022-11-15T02:13:12;9.30;;;3.35;;
74267;SDS011;62638;51.362;12.472;2022-11-15T02:15:40;6.25;;;3.08;;
74267;SDS011;62638;51.362;12.472;2022-11-15T02:18:22;8.50;;;3.47;;
74267;SDS011;62638;51.362;12.472;2022-11-15T02:21:15;7.18;;;2.75;;
74267;SDS011;62638;51.362;12.472;2022-11-15T02:24:11;9.38;;;3.75;;
74267;SDS011;62638;51.362;12.472;2022-11-15T02:30:00;9.48;;;4.13;;
74267;SDS011;62638;51.362;12.472;2022-11-15T02:32:39;12.02;;;4.63;;
74267;SDS011;62638;51.362;12.472;2022-11-15T02:35:21;5.72;;;2.72;;
74267;SDS011;62638;51.362;12.472;2022-11-15T02:38:05;5.63;;;3.10;;
74267;SDS011;62638;51.362;12.472;2022-11-15T02:43:32;5.63;;;2.80;;
74267;SDS011;62638;51.362;12.472;2022-11-15T02:49:31;6.97;;;3.60;;
74267;SDS011;62638;51.362;12.472;2022-11-15T02:51:58;8.15;;;3.55;;
74267;SDS011;62638;51.362;12.472;2022-11-15T02:54:26;6.03;;;2.58;;
74267;SDS011;62638;51.362;12.472;2022-11-15T02:56:55;6.18;;;2.75;;
74267;SDS011;62638;51.362;12.472;2022-11-15T03:07:36;6.15;;;2.83;;
74267;SDS011;62638;51.362;12.472;2022-11-15T03:13:23;6.32;;;2.92;;
74267;SDS011;62638;51.362;12.472;2022-11-15T03:15:55;9.77;;;3.50;;
74267;SDS011;62638;51.362;12.472;2022-11-15T03:18:37;8.35;;;3.33;;
74267;SDS011;62638;51.362;12.472;2022-11-15T03:21:07;6.30;;;3.00;;
74267;SDS011;62638;51.362;12.472;2022-11-15T03:23:35;8.38;;;3.42;;
74267;SDS011;62638;51.362;12.472;2022-11-15T03:26:01;10.95;;;3.72;;
74267;SDS011;62638;51.362;12.472;2022-11-15T03:28:36;10.57;;;4.05;;
74267;SDS011;62638;51.362;12.472;2022-11-15T03:31:06;7.45;;;3.35;;
74267;SDS011;62638;51.362;12.472;2022-11-15T03:33:53;9.55;;;4.18;;
74267;SDS011;62638;51.362;12.472;2022-11-15T03:36:22;12.55;;;4.10;;
74267;SDS011;62638;51.362;12.472;2022-11-15T03:38:49;7.38;;;3.97;;
74267;SDS011;62638;51.362;12.472;2022-11-15T03:41:24;5.57;;;3.67;;
74267;SDS011;62638;51.362;12.472;2022-11-15T03:43:57;8.75;;;3.50;;
74267;SDS011;62638;51.362;12.472;2022-11-15T03:46:33;8.65;;;3.28;;
74267;SDS011;62638;51.362;12.472;2022-11-15T03:49:08;6.88;;;3.17;;
74267;SDS011;62638;51.362;12.472;2022-11-15T03:51:39;6.75;;;3.83;;
74267;SDS011;62638;51.362;12.472;2022-11-15T03:54:04;7.63;;;3.25;;
74267;SDS011;62638;51.362;12.472;2022-11-15T03:56:30;7.30;;;1.98;;
74267;SDS011;62638;51.362;12.472;2022-11-15T03:58:55;8.52;;;3.30;;
74267;SDS011;62638;51.362;12.472;2022-11-15T04:01:21;6.50;;;2.90;;
74267;SDS011;62638;51.362;12.472;2022-11-15T04:03:46;9.17;;;3.07;;
74267;SDS011;62638;51.362;12.472;2022-11-15T04:06:11;12.88;;;4.13;;
74267;SDS011;62638;51.362;12.472;2022-11-15T04:08:37;10.90;;;3.92;;
74267;SDS011;62638;51.362;12.472;2022-11-15T04:11:02;7.25;;;3.17;;
74267;SDS011;62638;51.362;12.472;2022-11-15T04:13:27;6.67;;;2.93;;
74267;SDS011;62638;51.362;12.472;2022-11-15T04:15:52;7.00;;;3.87;;
74267;SDS011;62638;51.362;12.472;2022-11-15T04:18:18;7.07;;;2.97;;
74267;SDS011;62638;51.362;12.472;2022-11-15T04:20:43;10.00;;;4.30;;
74267;SDS011;62638;51.362;12.472;2022-11-15T04:23:27;13.85;;;4.47;;
74267;SDS011;62638;51.362;12.472;2022-11-15T04:26:12;7.18;;;3.47;;
74267;SDS011;62638;51.362;12.472;2022-11-15T04:28:40;8.45;;;3.33;;
74267;SDS011;62638;51.362;12.472;2022-11-15T04:31:25;8.48;;;3.60;;
74267;SDS011;62638;51.362;12.472;2022-11-15T04:33:52;9.40;;;3.72;;
74267;SDS011;62638;51.362;12.472;2022-11-15T04:36:18;17.08;;;4.50;;
74267;SDS011;62638;51.362;12.472;2022-11-15T04:39:02;13.20;;;5.38;;
74267;SDS011;62638;51.362;12.472;2022-11-15T04:41:28;14.32;;;4.75;;
74267;SDS011;62638;51.362;12.472;2022-11-15T04:43:54;8.20;;;3.67;;
74267;SDS011;62638;51.362;12.472;2022-11-15T04:46:19;12.68;;;4.18;;
74267;SDS011;62638;51.362;12.472;2022-11-15T04:48:45;7.43;;;3.60;;
74267;SDS011;62638;51.362;12.472;2022-11-15T04:51:10;6.63;;;3.05;;
74267;SDS011;62638;51.362;12.472;2022-11-15T04:53:36;11.93;;;3.97;;
74267;SDS011;62638;51.362;12.472;2022-11-15T04:56:01;9.33;;;4.13;;
74267;SDS011;62638;51.362;12.472;2022-11-15T04:58:26;6.43;;;3.50;;
74267;SDS011;62638;51.362;12.472;2022-11-15T05:00:51;7.50;;;3.37;;
74267;SDS011;62638;51.362;12.472;2022-11-15T05:03:17;7.50;;;3.60;;
74267;SDS011;62638;51.362;12.472;2022-11-15T05:06:00;8.43;;;3.13;;
74267;SDS011;62638;51.362;12.472;2022-11-15T05:08:26;9.90;;;3.47;;
74267;SDS011;62638;51.362;12.472;2022-11-15T05:10:51;6.38;;;2.95;;
74267;SDS011;62638;51.362;12.472;2022-11-15T05:13:17;9.13;;;3.47;;
74267;SDS011;62638;51.362;12.472;2022-11-15T05:15:42;10.43;;;3.35;;
74267;SDS011;62638;51.362;12.472;2022-11-15T05:18:07;4.93;;;2.67;;
74267;SDS011;62638;51.362;12.472;2022-11-15T05:20:32;5.63;;;3.17;;
74267;SDS011;62638;51.362;12.472;2022-11-15T05:22:58;5.30;;;2.17;;
74267;SDS011;62638;51.362;12.472;2022-11-15T05:25:23;6.75;;;2.72;;
74267;SDS011;62638;51.362;12.472;2022-11-15T05:27:48;6.40;;;2.78;;
74267;SDS011;62638;51.362;12.472;2022-11-15T05:30:14;6.93;;;3.07;;
74267;SDS011;62638;51.362;12.472;2022-11-15T05:32:41;7.53;;;3.13;;
74267;SDS011;62638;51.362;12.472;2022-11-15T05:35:06;9.02;;;2.70;;
74267;SDS011;62638;51.362;12.472;2022-11-15T05:37:37;8.32;;;3.55;;
74267;SDS011;62638;51.362;12.472;2022-11-15T05:40:02;8.02;;;3.13;;
74267;SDS011;62638;51.362;12.472;2022-11-15T05:42:28;9.45;;;3.13;;
74267;SDS011;62638;51.362;12.472;2022-11-15T05:44:55;6.55;;;3.33;;
74267;SDS011;62638;51.362;12.472;2022-11-15T05:47:24;4.18;;;2.50;;
74267;SDS011;62638;51.362;12.472;2022-11-15T05:49:53;5.18;;;3.05;;
74267;SDS011;62638;51.362;12.472;2022-11-15T05:52:20;4.15;;;2.15;;
74267;SDS011;62638;51.362;12.472;2022-11-15T05:54:49;9.25;;;3.17;;
74267;SDS011;62638;51.362;12.472;2022-11-15T05:57:15;8.88;;;3.17;;
74267;SDS011;62638;51.362;12.472;2022-11-15T05:59:41;6.30;;;3.15;;
74267;SDS011;62638;51.362;12.472;2022-11-15T06:02:08;7.38;;;3.25;;
74267;SDS011;62638;51.362;12.472;2022-11-15T06:04:34;9.88;;;2.30;;
74267;SDS011;62638;51.362;12.472;2022-11-15T06:06:59;6.53;;;2.85;;
74267;SDS011;62638;51.362;12.472;2022-11-15T06:09:25;10.93;;;3.50;;
74267;SDS011;62638;51.362;12.472;2022-11-15T06:11:50;4.77;;;2.30;;
74267;SDS011;62638;51.362;12.472;2022-11-15T06:14:15;7.83;;;3.77;;
74267;SDS011;62638;51.362;12.472;2022-11-15T06:16:40;5.47;;;3.07;;
74267;SDS011;62638;51.362;12.472;2022-11-15T06:19:06;5.40;;;2.72;;
74267;SDS011;62638;51.362;12.472;2022-11-15T06:21:32;7.85;;;2.55;;
74267;SDS011;62638;51.362;12.472;2022-11-15T06:23:57;7.35;;;3.05;;
74267;SDS011;62638;51.362;12.472;2022-11-15T06:26:23;5.60;;;3.07;;
74267;SDS011;62638;51.362;12.472;2022-11-15T06:28:48;6.82;;;3.42;;
74267;SDS011;62638;51.362;12.472;2022-11-15T06:31:13;6.30;;;3.07;;
74267;SDS011;62638;51.362;12.472;2022-11-15T06:33:39;3.60;;;1.95;;
74267;SDS011;62638;51.362;12.472;2022-11-15T06:36:09;4.38;;;2.83;;
74267;SDS011;62638;51.362;12.472;2022-11-15T06:38:38;6.53;;;2.78;;
74267;SDS011;62638;51.362;12.472;2022-11-15T06:41:05;8.65;;;2.85;;
74267;SDS011;62638;51.362;12.472;2022-11-15T06:46:01;5.47;;;2.95;;
74267;SDS011;62638;51.362;12.472;2022-11-15T06:48:27;7.63;;;2.63;;
74267;SDS011;62638;51.362;12.472;2022-11-15T06:50:53;7.30;;;3.40;;
74267;SDS011;62638;51.362;12.472;2022-11-15T06:53:20;7.53;;;3.33;;
74267;SDS011;62638;51.362;12.472;2022-11-15T06:55:45;4.53;;;2.30;;
74267;SDS011;62638;51.362;12.472;2022-11-15T06:58:11;8.05;;;3.00;;
74267;SDS011;62638;51.362;12.472;2022-11-15T07:00:36;12.93;;;3.65;;
74267;SDS011;62638;51.362;12.472;2022-11-15T07:03:02;7.25;;;3.00;;
74267;SDS011;62638;51.362;12.472;2022-11-15T07:05:28;8.65;;;3.42;;
74267;SDS011;62638;51.362;12.472;2022-11-15T07:07:54;9.43;;;3.17;;
74267;SDS011;62638;51.362;12.472;2022-11-15T07:10:20;6.53;;;3.00;;
74267;SDS011;62638;51.362;12.472;2022-11-15T07:12:47;7.63;;;2.55;;
74267;SDS011;62638;51.362;12.472;2022-11-15T07:15:14;7.32;;;2.63;;
74267;SDS011;62638;51.362;12.472;2022-11-15T07:17:40;5.72;;;2.60;;
74267;SDS011;62638;51.362;12.472;2022-11-15T07:20:05;6.60;;;3.80;;
74267;SDS011;62638;51.362;12.472;2022-11-15T07:22:31;5.22;;;2.55;;
74267;SDS011;62638;51.362;12.472;2022-11-15T07:24:56;9.18;;;2.70;;
74267;SDS011;62638;51.362;12.472;2022-11-15T07:27:21;5.60;;;2.57;;
74267;SDS011;62638;51.362;12.472;2022-11-15T07:29:47;4.07;;;2.28;;
74267;SDS011;62638;51.362;12.472;2022-11-15T07:32:12;5.10;;;2.20;;
74267;SDS011;62638;51.362;12.472;2022-11-15T07:34:37;4.70;;;3.03;;
74267;SDS011;62638;51.362;12.472;2022-11-15T07:37:03;5.17;;;2.50;;
74267;SDS011;62638;51.362;12.472;2022-11-15T07:39:28;7.00;;;2.87;;
74267;SDS011;62638;51.362;12.472;2022-11-15T07:41:53;6.07;;;2.30;;
74267;SDS011;62638;51.362;12.472;2022-11-15T07:44:38;4.75;;;2.20;;
74267;SDS011;62638;51.362;12.472;2022-11-15T07:47:04;7.87;;;3.30;;
74267;SDS011;62638;51.362;12.472;2022-11-15T07:49:29;4.07;;;1.98;;
74267;SDS011;62638;51.362;12.472;2022-11-15T07:51:54;7.22;;;2.75;;
74267;SDS011;62638;51.362;12.472;2022-11-15T07:54:20;7.00;;;2.70;;
74267;SDS011;62638;51.362;12.472;2022-11-15T07:56:45;5.53;;;2.23;;
74267;SDS011;62638;51.362;12.472;2022-11-15T07:59:10;5.35;;;2.15;;
74267;SDS011;62638;51.362;12.472;2022-11-15T08:01:35;6.00;;;2.80;;
74267;SDS011;62638;51.362;12.472;2022-11-15T08:04:01;5.10;;;2.03;;
74267;SDS011;62638;51.362;12.472;2022-11-15T08:06:26;3.83;;;1.60;;
74267;SDS011;62638;51.362;12.472;2022-11-15T08:08:51;3.43;;;1.80;;
74267;SDS011;62638;51.362;12.472;2022-11-15T08:11:17;4.87;;;2.53;;
74267;SDS011;62638;51.362;12.472;2022-11-15T08:13:42;4.20;;;1.83;;
74267;SDS011;62638;51.362;12.472;2022-11-15T08:16:08;4.83;;;2.10;;
74267;SDS011;62638;51.362;12.472;2022-11-15T08:18:34;4.40;;;2.10;;
74267;SDS011;62638;51.362;12.472;2022-11-15T08:20:59;6.63;;;1.95;;
74267;SDS011;62638;51.362;12.472;2022-11-15T08:23:26;3.58;;;1.67;;
74267;SDS011;62638;51.362;12.472;2022-11-15T08:25:52;4.30;;;1.95;;
74267;SDS011;62638;51.362;12.472;2022-11-15T08:28:17;3.43;;;1.97;;
74267;SDS011;62638;51.362;12.472;2022-11-15T08:30:43;5.72;;;2.78;;
74267;SDS011;62638;51.362;12.472;2022-11-15T08:33:10;4.75;;;1.88;;
74267;SDS011;62638;51.362;12.472;2022-11-15T08:35:37;5.50;;;2.22;;
74267;SDS011;62638;51.362;12.472;2022-11-15T08:38:03;4.93;;;2.22;;
74267;SDS011;62638;51.362;12.472;2022-11-15T08:40:29;4.07;;;1.87;;
74267;SDS011;62638;51.362;12.472;2022-11-15T08:42:54;5.30;;;2.23;;
74267;SDS011;62638;51.362;12.472;2022-11-15T08:45:19;5.25;;;2.05;;
74267;SDS011;62638;51.362;12.472;2022-11-15T08:47:45;3.20;;;1.85;;
74267;SDS011;62638;51.362;12.472;2022-11-15T08:50:10;3.53;;;1.85;;
74267;SDS011;62638;51.362;12.472;2022-11-15T08:52:35;4.45;;;1.83;;
74267;SDS011;62638;51.362;12.472;2022-11-15T08:55:01;5.50;;;2.13;;
74267;SDS011;62638;51.362;12.472;2022-11-15T08:57:28;4.93;;;2.22;;
74267;SDS011;62638;51.362;12.472;2022-11-15T08:59:54;4.35;;;2.05;;
74267;SDS011;62638;51.362;12.472;2022-11-15T09:02:19;5.50;;;2.80;;
74267;SDS011;62638;51.362;12.472;2022-11-15T09:04:45;3.23;;;1.80;;
74267;SDS011;62638;51.362;12.472;2022-11-15T09:07:10;7.00;;;2.07;;
74267;SDS011;62638;51.362;12.472;2022-11-15T09:09:36;5.22;;;2.05;;
74267;SDS011;62638;51.362;12.472;2022-11-15T09:12:02;4.25;;;2.03;;
74267;SDS011;62638;51.362;12.472;2022-11-15T09:14:29;4.95;;;2.40;;
74267;SDS011;62638;51.362;12.472;2022-11-15T09:16:54;5.20;;;2.38;;
74267;SDS011;62638;51.362;12.472;2022-11-15T09:19:20;4.28;;;1.70;;
74267;SDS011;62638;51.362;12.472;2022-11-15T09:21:45;3.28;;;1.50;;
74267;SDS011;62638;51.362;12.472;2022-11-15T09:24:11;5.40;;;2.65;;
74267;SDS011;62638;51.362;12.472;2022-11-15T09:26:36;3.85;;;2.00;;
74267;SDS011;62638;51.362;12.472;2022-11-15T09:29:01;5.03;;;2.50;;
74267;SDS011;62638;51.362;12.472;2022-11-15T09:31:27;3.95;;;1.90;;
74267;SDS011;62638;51.362;12.472;2022-11-15T09:33:54;3.58;;;2.22;;
74267;SDS011;62638;51.362;12.472;2022-11-15T09:36:20;3.25;;;1.90;;
74267;SDS011;62638;51.362;12.472;2022-11-15T09:38:45;4.07;;;1.48;;
74267;SDS011;62638;51.362;12.472;2022-11-15T09:46:56;4.80;;;1.98;;
74267;SDS011;62638;51.362;12.472;2022-11-15T09:49:17;3.55;;;1.55;;
74267;SDS011;62638;51.362;12.472;2022-11-15T09:51:50;4.82;;;1.80;;
74267;SDS011;62638;51.362;12.472;2022-11-15T09:56:55;4.63;;;2.03;;
74267;SDS011;62638;51.362;12.472;2022-11-15T10:04:43;3.58;;;1.35;;
74267;SDS011;62638;51.362;12.472;2022-11-15T10:07:16;3.63;;;1.55;;
74267;SDS011;62638;51.362;12.472;2022-11-15T10:12:21;3.85;;;1.50;;
74267;SDS011;62638;51.362;12.472;2022-11-15T10:14:47;4.30;;;1.70;;
74267;SDS011;62638;51.362;12.472;2022-11-15T10:19:54;4.88;;;1.80;;
74267;SDS011;62638;51.362;12.472;2022-11-15T10:27:34;3.90;;;1.95;;
74267;SDS011;62638;51.362;12.472;2022-11-15T10:29:59;3.92;;;2.08;;
74267;SDS011;62638;51.362;12.472;2022-11-15T10:32:25;4.38;;;2.13;;
74267;SDS011;62638;51.362;12.472;2022-11-15T10:34:51;3.17;;;1.90;;
74267;SDS011;62638;51.362;12.472;2022-11-15T10:37:30;3.50;;;1.63;;
74267;SDS011;62638;51.362;12.472;2022-11-15T10:40:03;4.65;;;1.98;;
74267;SDS011;62638;51.362;12.472;2022-11-15T10:42:29;3.25;;;1.10;;
74267;SDS011;62638;51.362;12.472;2022-11-15T10:44:54;5.50;;;1.90;;
74267;SDS011;62638;51.362;12.472;2022-11-15T10:47:21;4.15;;;1.52;;
74267;SDS011;62638;51.362;12.472;2022-11-15T10:49:53;3.40;;;1.75;;
74267;SDS011;62638;51.362;12.472;2022-11-15T10:52:20;6.70;;;1.90;;
74267;SDS011;62638;51.362;12.472;2022-11-15T10:57:22;2.25;;;1.30;;
74267;SDS011;62638;51.362;12.472;2022-11-15T10:59:52;3.42;;;1.80;;
74267;SDS011;62638;51.362;12.472;2022-11-15T11:02:26;4.63;;;1.50;;
74267;SDS011;62638;51.362;12.472;2022-11-15T11:04:58;3.83;;;1.90;;
74267;SDS011;62638;51.362;12.472;2022-11-15T11:07:29;3.88;;;2.13;;
74267;SDS011;62638;51.362;12.472;2022-11-15T11:10:05;4.38;;;1.60;;
74267;SDS011;62638;51.362;12.472;2022-11-15T11:12:44;3.20;;;1.65;;
74267;SDS011;62638;51.362;12.472;2022-11-15T11:15:11;3.83;;;1.87;;
74267;SDS011;62638;51.362;12.472;2022-11-15T11:20:49;4.18;;;2.17;;
74267;SDS011;62638;51.362;12.472;2022-11-15T11:26:31;3.22;;;1.73;;
74267;SDS011;62638;51.362;12.472;2022-11-15T11:37:42;2.85;;;1.50;;
74267;SDS011;62638;51.362;12.472;2022-11-15T11:40:28;2.67;;;1.40;;
74267;SDS011;62638;51.362;12.472;2022-11-15T11:45:59;3.55;;;1.45;;
74267;SDS011;62638;51.362;12.472;2022-11-15T11:57:03;4.82;;;1.65;;
74267;SDS011;62638;51.362;12.472;2022-11-15T11:59:43;4.93;;;2.05;;
74267;SDS011;62638;51.362;12.472;2022-11-15T12:02:18;3.58;;;1.65;;
74267;SDS011;62638;51.362;12.472;2022-11-15T12:04:50;3.53;;;1.58;;
74267;SDS011;62638;51.362;12.472;2022-11-15T12:07:25;2.30;;;1.60;;
74267;SDS011;62638;51.362;12.472;2022-11-15T12:12:53;3.78;;;1.60;;
74267;SDS011;62638;51.362;12.472;2022-11-15T12:15:35;3.15;;;1.20;;
74267;SDS011;62638;51.362;12.472;2022-11-15T12:18:07;2.85;;;1.42;;
74267;SDS011;62638;51.362;12.472;2022-11-15T12:20:39;2.17;;;1.20;;
74267;SDS011;62638;51.362;12.472;2022-11-15T12:25:52;2.80;;;1.30;;
74267;SDS011;62638;51.362;12.472;2022-11-15T12:28:26;2.47;;;1.10;;
74267;SDS011;62638;51.362;12.472;2022-11-15T12:38:56;2.53;;;1.67;;
74267;SDS011;62638;51.362;12.472;2022-11-15T12:41:31;3.67;;;1.50;;
74267;SDS011;62638;51.362;12.472;2022-11-15T12:44:01;2.08;;;0.95;;
74267;SDS011;62638;51.362;12.472;2022-11-15T12:49:00;1.58;;;1.10;;
74267;SDS011;62638;51.362;12.472;2022-11-15T12:52:09;2.28;;;1.35;;
74267;SDS011;62638;51.362;12.472;2022-11-15T13:17:37;2.80;;;1.20;;
74267;SDS011;62638;51.362;12.472;2022-11-15T13:30:35;2.80;;;1.40;;
74267;SDS011;62638;51.362;12.472;2022-11-15T13:33:09;1.52;;;0.88;;
74267;SDS011;62638;51.362;12.472;2022-11-15T13:35:40;2.78;;;1.25;;
74267;SDS011;62638;51.362;12.472;2022-11-15T13:38:12;2.38;;;1.33;;
74267;SDS011;62638;51.362;12.472;2022-11-15T13:40:44;3.20;;;1.17;;
74267;SDS011;62638;51.362;12.472;2022-11-15T13:48:42;2.88;;;1.05;;
74267;SDS011;62638;51.362;12.472;2022-11-15T13:51:34;3.40;;;1.30;;
74267;SDS011;62638;51.362;12.472;2022-11-15T13:53:59;4.15;;;1.48;;
74267;SDS011;62638;51.362;12.472;2022-11-15T13:56:40;1.55;;;1.15;;
74267;SDS011;62638;51.362;12.472;2022-11-15T13:59:13;1.90;;;1.40;;
74267;SDS011;62638;51.362;12.472;2022-11-15T14:01:50;6.57;;;1.20;;
74267;SDS011;62638;51.362;12.472;2022-11-15T14:04:18;3.42;;;1.30;;
74267;SDS011;62638;51.362;12.472;2022-11-15T14:06:50;2.75;;;1.17;;
74267;SDS011;62638;51.362;12.472;2022-11-15T14:09:37;3.58;;;1.15;;
74267;SDS011;62638;51.362;12.472;2022-11-15T14:15:19;2.65;;;1.20;;
74267;SDS011;62638;51.362;12.472;2022-11-15T14:17:59;2.13;;;1.30;;
74267;SDS011;62638;51.362;12.472;2022-11-15T14:22:51;4.23;;;1.70;;
74267;SDS011;62638;51.362;12.472;2022-11-15T14:25:21;3.08;;;1.27;;
74267;SDS011;62638;51.362;12.472;2022-11-15T14:30:35;2.90;;;1.25;;
74267;SDS011;62638;51.362;12.472;2022-11-15T14:33:00;2.67;;;1.23;;
74267;SDS011;62638;51.362;12.472;2022-11-15T14:35:27;3.50;;;1.13;;
74267;SDS011;62638;51.362;12.472;2022-11-15T14:37:52;2.17;;;1.30;;
74267;SDS011;62638;51.362;12.472;2022-11-15T14:40:19;2.57;;;1.37;;
74267;SDS011;62638;51.362;12.472;2022-11-15T14:42:46;2.15;;;1.00;;
74267;SDS011;62638;51.362;12.472;2022-11-15T14:45:19;5.57;;;1.70;;
74267;SDS011;62638;51.362;12.472;2022-11-15T14:47:46;3.72;;;1.73;;
74267;SDS011;62638;51.362;12.472;2022-11-15T14:50:15;3.45;;;1.60;;
74267;SDS011;62638;51.362;12.472;2022-11-15T14:52:43;2.28;;;1.23;;
74267;SDS011;62638;51.362;12.472;2022-11-15T14:55:30;4.18;;;1.75;;
74267;SDS011;62638;51.362;12.472;2022-11-15T14:58:01;4.70;;;1.98;;
74267;SDS011;62638;51.362;12.472;2022-11-15T15:00:32;4.05;;;1.67;;
74267;SDS011;62638;51.362;12.472;2022-11-15T15:02:58;5.38;;;2.97;;
74267;SDS011;62638;51.362;12.472;2022-11-15T15:05:25;1.80;;;1.10;;
74267;SDS011;62638;51.362;12.472;2022-11-15T15:07:56;2.55;;;1.35;;
74267;SDS011;62638;51.362;12.472;2022-11-15T15:10:21;4.00;;;1.40;;
74267;SDS011;62638;51.362;12.472;2022-11-15T15:12:47;3.75;;;1.60;;
74267;SDS011;62638;51.362;12.472;2022-11-15T15:15:32;3.63;;;1.60;;
74267;SDS011;62638;51.362;12.472;2022-11-15T15:17:59;4.03;;;1.50;;
74267;SDS011;62638;51.362;12.472;2022-11-15T15:20:24;8.10;;;1.90;;
74267;SDS011;62638;51.362;12.472;2022-11-15T15:22:50;5.97;;;2.17;;
74267;SDS011;62638;51.362;12.472;2022-11-15T15:27:46;5.10;;;1.90;;
74267;SDS011;62638;51.362;12.472;2022-11-15T15:30:12;3.03;;;1.70;;
74267;SDS011;62638;51.362;12.472;2022-11-15T15:32:37;4.53;;;2.10;;
74267;SDS011;62638;51.362;12.472;2022-11-15T15:35:03;4.13;;;1.63;;
74267;SDS011;62638;51.362;12.472;2022-11-15T15:37:28;2.80;;;1.83;;
74267;SDS011;62638;51.362;12.472;2022-11-15T15:39:58;3.50;;;1.80;;
74267;SDS011;62638;51.362;12.472;2022-11-15T15:42:24;5.07;;;1.92;;
74267;SDS011;62638;51.362;12.472;2022-11-15T15:44:49;5.20;;;1.80;;
74267;SDS011;62638;51.362;12.472;2022-11-15T15:47:16;2.83;;;1.75;;
74267;SDS011;62638;51.362;12.472;2022-11-15T15:49:46;4.18;;;2.28;;
74267;SDS011;62638;51.362;12.472;2022-11-15T15:52:13;4.35;;;2.13;;
74267;SDS011;62638;51.362;12.472;2022-11-15T15:54:39;4.35;;;2.00;;
74267;SDS011;62638;51.362;12.472;2022-11-15T15:57:05;7.40;;;2.50;;
74267;SDS011;62638;51.362;12.472;2022-11-15T15:59:31;6.18;;;2.33;;
74267;SDS011;62638;51.362;12.472;2022-11-15T16:01:57;6.13;;;1.97;;
74267;SDS011;62638;51.362;12.472;2022-11-15T16:04:22;6.43;;;1.87;;
74267;SDS011;62638;51.362;12.472;2022-11-15T16:06:48;5.63;;;2.67;;
74267;SDS011;62638;51.362;12.472;2022-11-15T16:09:15;6.60;;;2.85;;
74267;SDS011;62638;51.362;12.472;2022-11-15T16:11:43;6.63;;;2.33;;
74267;SDS011;62638;51.362;12.472;2022-11-15T16:14:09;8.63;;;2.67;;
74267;SDS011;62638;51.362;12.472;2022-11-15T16:16:35;6.43;;;2.30;;
74267;SDS011;62638;51.362;12.472;2022-11-15T16:19:01;5.72;;;2.88;;
74267;SDS011;62638;51.362;12.472;2022-11-15T16:21:27;6.90;;;2.83;;
74267;SDS011;62638;51.362;12.472;2022-11-15T16:23:52;10.18;;;3.67;;
74267;SDS011;62638;51.362;12.472;2022-11-15T16:26:20;9.98;;;4.80;;
74267;SDS011;62638;51.362;12.472;2022-11-15T16:28:46;8.65;;;4.78;;
74267;SDS011;62638;51.362;12.472;2022-11-15T16:31:11;15.50;;;4.85;;
74267;SDS011;62638;51.362;12.472;2022-11-15T16:33:37;11.38;;;5.07;;
74267;SDS011;62638;51.362;12.472;2022-11-15T16:36:03;12.88;;;5.35;;
74267;SDS011;62638;51.362;12.472;2022-11-15T16:38:30;16.15;;;6.07;;
74267;SDS011;62638;51.362;12.472;2022-11-15T16:40:56;11.63;;;4.43;;
74267;SDS011;62638;51.362;12.472;2022-11-15T16:43:21;13.63;;;5.80;;
74267;SDS011;62638;51.362;12.472;2022-11-15T16:45:46;12.10;;;4.95;;
74267;SDS011;62638;51.362;12.472;2022-11-15T16:48:32;9.80;;;4.60;;
74267;SDS011;62638;51.362;12.472;2022-11-15T16:50:59;14.93;;;5.40;;
74267;SDS011;62638;51.362;12.472;2022-11-15T16:53:25;15.40;;;5.38;;
74267;SDS011;62638;51.362;12.472;2022-11-15T16:55:51;12.40;;;5.97;;
74267;SDS011;62638;51.362;12.472;2022-11-15T16:58:17;15.45;;;6.60;;
74267;SDS011;62638;51.362;12.472;2022-11-15T17:00:42;17.43;;;6.60;;
74267;SDS011;62638;51.362;12.472;2022-11-15T17:03:08;14.40;;;6.38;;